Time;durP1;ratioP1;P1;durP2;ratioP2;P2;SDS_P1;SDS_P2;PMS_P1;PMS_P2;Temp;Humidity;BMP_temperature;BMP_pressure;BME280_temperature;BME280_humidity;BME280_pressure;Samples;Min_cycle;Max_cycle;Signal;HPM_P1;HPM_P2
2023/04/06 00:01:20;;;;;;;18.00;9.20;;;4.10;25.10;;;;;;5007950;28;20855;-74
2023/04/06 00:03:46;;;;;;;16.33;9.73;;;4.10;25.70;;;;;;4997063;28;20390;-73
2023/04/06 00:06:11;;;;;;;22.75;10.57;;;4.00;26.00;;;;;;5008932;28;20458;-74
2023/04/06 00:08:37;;;;;;;14.52;9.50;;;4.00;27.40;;;;;;5008569;28;20738;-73
2023/04/06 00:11:02;;;;;;;17.70;10.50;;;4.00;27.80;;;;;;4996173;28;20764;-74
2023/04/06 00:13:28;;;;;;;16.00;10.20;;;4.00;28.30;;;;;;4994910;28;20872;-74
2023/04/06 00:15:53;;;;;;;20.05;11.05;;;3.90;28.60;;;;;;4995225;28;20883;-74
2023/04/06 00:18:19;;;;;;;17.73;10.82;;;3.90;30.10;;;;;;4994849;28;20387;-75
2023/04/06 00:20:45;;;;;;;21.93;12.37;;;4.00;31.10;;;;;;4994835;28;20937;-74
2023/04/06 00:23:10;;;;;;;20.47;12.03;;;4.10;31.50;;;;;;4994534;28;20394;-74
2023/04/06 00:25:36;;;;;;;24.13;13.27;;;4.10;31.10;;;;;;4994742;28;20497;-74
2023/04/06 00:28:01;;;;;;;21.70;13.80;;;4.10;33.10;;;;;;4994952;28;20390;-74
2023/04/06 00:30:27;;;;;;;22.60;13.20;;;4.00;34.00;;;;;;4993355;28;20441;-74
2023/04/06 00:32:52;;;;;;;22.60;13.43;;;4.10;33.60;;;;;;4994395;28;20453;-74
2023/04/06 00:35:18;;;;;;;23.98;13.70;;;4.00;34.30;;;;;;4994475;28;20387;-74
2023/04/06 00:37:46;;;;;;;23.17;12.80;;;4.00;34.80;;;;;;4994744;28;20398;-74
2023/04/06 00:40:12;;;;;;;25.75;14.20;;;4.00;34.00;;;;;;4994796;28;20386;-73
2023/04/06 00:42:38;;;;;;;25.85;13.30;;;4.10;34.40;;;;;;4994698;28;20386;-74
2023/04/06 00:45:04;;;;;;;26.60;13.63;;;4.10;33.90;;;;;;4995049;28;20395;-74
2023/04/06 00:47:29;;;;;;;24.53;14.00;;;4.00;35.20;;;;;;4994627;28;20395;-73
2023/04/06 00:49:55;;;;;;;22.80;14.02;;;4.00;34.50;;;;;;4994796;28;20406;-73
2023/04/06 00:52:21;;;;;;;25.75;13.38;;;4.00;35.00;;;;;;4988989;28;20396;-73
2023/04/06 00:54:47;;;;;;;21.73;12.90;;;3.90;33.30;;;;;;4993668;28;20490;-73
2023/04/06 00:57:13;;;;;;;22.45;13.73;;;3.90;34.00;;;;;;4994286;28;20378;-73
2023/04/06 00:59:39;;;;;;;25.23;13.05;;;3.90;35.80;;;;;;4991601;28;20399;-74
2023/04/06 01:02:05;;;;;;;22.33;13.50;;;3.90;34.90;;;;;;4986239;28;20406;-74
2023/04/06 01:04:32;;;;;;;24.85;13.85;;;3.90;34.50;;;;;;4974891;28;20494;-75
2023/04/06 01:06:57;;;;;;;25.63;13.68;;;3.90;34.60;;;;;;4986706;28;20807;-74
2023/04/06 01:09:23;;;;;;;21.53;13.77;;;3.90;33.80;;;;;;4994245;28;21130;-74
2023/04/06 01:11:49;;;;;;;23.87;14.23;;;3.90;34.70;;;;;;4975856;28;20440;-74
2023/04/06 01:14:14;;;;;;;21.10;13.20;;;3.90;34.80;;;;;;4978105;28;20444;-75
2023/04/06 01:16:41;;;;;;;22.25;13.52;;;3.90;34.40;;;;;;4993508;28;20411;-74
2023/04/06 01:19:11;;;;;;;22.50;14.40;;;3.80;34.20;;;;;;4994262;28;20481;-75
2023/04/06 01:21:38;;;;;;;24.88;14.40;;;3.80;34.90;;;;;;4994292;28;20402;-76
2023/04/06 01:24:04;;;;;;;23.10;14.00;;;3.80;34.40;;;;;;4994294;28;20515;-76
2023/04/06 01:26:30;;;;;;;20.50;12.77;;;3.90;35.50;;;;;;4994432;28;20875;-75
2023/04/06 01:28:56;;;;;;;25.77;14.43;;;3.80;35.10;;;;;;4992760;28;20421;-75
2023/04/06 01:31:22;;;;;;;21.40;13.82;;;3.90;35.90;;;;;;5002464;28;20402;-76
2023/04/06 01:33:48;;;;;;;23.10;14.17;;;3.90;34.70;;;;;;5017613;28;20484;-75
2023/04/06 01:36:14;;;;;;;21.30;13.60;;;4.00;35.30;;;;;;5018148;28;20385;-75
2023/04/06 01:38:41;;;;;;;21.52;13.40;;;3.90;35.20;;;;;;5018206;28;20425;-75
2023/04/06 01:41:07;;;;;;;25.65;14.73;;;3.80;34.90;;;;;;5017455;28;20398;-75
2023/04/06 01:43:32;;;;;;;22.60;13.73;;;3.80;37.10;;;;;;5017789;28;20402;-75
2023/04/06 01:45:58;;;;;;;22.93;14.47;;;3.80;35.10;;;;;;5017792;28;20572;-75
2023/04/06 01:48:23;;;;;;;21.43;13.97;;;3.80;35.20;;;;;;5017786;28;20387;-76
2023/04/06 01:50:49;;;;;;;23.70;14.20;;;3.80;36.00;;;;;;5017619;28;20462;-76
2023/04/06 01:53:15;;;;;;;24.70;13.93;;;3.80;35.60;;;;;;5017374;28;20379;-75
2023/04/06 01:55:40;;;;;;;22.80;13.35;;;3.80;36.30;;;;;;5017509;28;20378;-75
2023/04/06 01:58:06;;;;;;;23.13;14.40;;;3.80;35.60;;;;;;5017437;28;20478;-75
2023/04/06 02:00:32;;;;;;;28.47;14.60;;;3.80;36.50;;;;;;5017595;28;20401;-75
2023/04/06 02:02:57;;;;;;;24.27;14.77;;;3.70;36.90;;;;;;5017439;28;20386;-75
2023/04/06 02:05:23;;;;;;;25.30;15.07;;;3.60;37.90;;;;;;5016823;28;20401;-75
2023/04/06 02:07:49;;;;;;;22.33;13.90;;;3.70;37.00;;;;;;5008188;28;20445;-75
2023/04/06 02:10:15;;;;;;;24.67;15.10;;;3.60;36.20;;;;;;5001062;28;20416;-75
2023/04/06 02:12:40;;;;;;;25.23;14.32;;;3.60;37.00;;;;;;5002902;28;20945;-75
2023/04/06 02:15:06;;;;;;;25.65;14.10;;;3.50;37.00;;;;;;5000068;28;20585;-75
2023/04/06 02:17:32;;;;;;;24.90;15.30;;;3.40;37.30;;;;;;4993833;28;20382;-75
2023/04/06 02:19:58;;;;;;;26.27;14.70;;;3.40;37.00;;;;;;4994011;28;20903;-75
2023/04/06 02:22:23;;;;;;;22.27;14.88;;;3.40;36.40;;;;;;4995663;28;20937;-76
2023/04/06 02:24:49;;;;;;;25.83;14.52;;;3.40;38.20;;;;;;4991313;28;20414;-75
2023/04/06 02:27:15;;;;;;;24.25;14.32;;;3.40;39.00;;;;;;4993778;28;20421;-75
2023/04/06 02:29:40;;;;;;;27.20;14.80;;;3.30;38.60;;;;;;4993180;28;20725;-75
2023/04/06 02:32:06;;;;;;;23.73;14.50;;;3.30;38.80;;;;;;4995382;28;20374;-76
2023/04/06 02:34:32;;;;;;;24.70;14.43;;;3.40;40.60;;;;;;5000036;28;20944;-75
2023/04/06 02:36:57;;;;;;;25.17;15.30;;;3.30;41.10;;;;;;4998396;28;20855;-75
2023/04/06 02:39:23;;;;;;;22.70;14.40;;;3.30;40.50;;;;;;5005695;28;20418;-74
2023/04/06 02:41:48;;;;;;;24.97;13.83;;;3.30;39.60;;;;;;5006568;28;20598;-75
2023/04/06 02:44:14;;;;;;;21.90;14.83;;;3.30;40.10;;;;;;5008581;28;20434;-75
2023/04/06 02:46:40;;;;;;;25.30;15.40;;;3.30;39.30;;;;;;5007510;28;20422;-74
2023/04/06 02:49:05;;;;;;;23.05;14.50;;;3.30;39.00;;;;;;5008757;28;20458;-75
2023/04/06 02:51:31;;;;;;;27.25;14.90;;;3.30;38.00;;;;;;5008281;28;20458;-74
2023/04/06 02:53:56;;;;;;;25.23;14.10;;;3.20;37.70;;;;;;5006615;28;20394;-75
2023/04/06 02:56:22;;;;;;;23.87;14.50;;;3.20;38.00;;;;;;4994139;28;20514;-75
2023/04/06 02:58:48;;;;;;;23.10;13.93;;;3.20;39.10;;;;;;5003320;28;20398;-76
2023/04/06 03:01:13;;;;;;;23.20;13.83;;;3.20;38.60;;;;;;5010214;28;20844;-76
2023/04/06 03:03:39;;;;;;;22.10;13.13;;;3.20;39.30;;;;;;5008850;28;20414;-75
2023/04/06 03:06:04;;;;;;;23.00;14.30;;;3.20;40.20;;;;;;5008325;28;20398;-76
2023/04/06 03:08:30;;;;;;;22.05;13.60;;;3.30;37.90;;;;;;5008921;28;20390;-75
2023/04/06 03:10:56;;;;;;;23.20;13.88;;;3.30;39.10;;;;;;5001946;28;20942;-74
2023/04/06 03:13:21;;;;;;;21.17;12.07;;;3.20;39.10;;;;;;5008505;28;20390;-74
2023/04/06 03:15:47;;;;;;;20.73;13.33;;;3.30;38.20;;;;;;5008860;28;20394;-75
2023/04/06 03:18:12;;;;;;;21.20;12.87;;;3.30;38.30;;;;;;5008119;28;20394;-76
2023/04/06 03:20:38;;;;;;;19.00;12.47;;;3.30;38.40;;;;;;5009794;28;20398;-75
2023/04/06 03:23:04;;;;;;;22.30;13.13;;;3.20;38.10;;;;;;5003782;28;20386;-76
2023/04/06 03:25:33;;;;;;;19.20;13.10;;;3.20;38.90;;;;;;5004780;28;20409;-76
2023/04/06 03:27:58;;;;;;;22.23;13.13;;;3.30;39.10;;;;;;5011951;28;20806;-76
2023/04/06 03:30:24;;;;;;;20.13;12.00;;;3.30;38.10;;;;;;5005892;28;20768;-75
2023/04/06 03:32:50;;;;;;;18.80;12.00;;;3.30;37.40;;;;;;4997390;28;20922;-74
2023/04/06 03:35:15;;;;;;;21.15;11.60;;;3.30;36.90;;;;;;5012028;28;20371;-74
2023/04/06 03:37:41;;;;;;;23.50;12.23;;;3.30;36.90;;;;;;5017471;28;20502;-75
2023/04/06 03:40:07;;;;;;;21.80;11.77;;;3.30;38.10;;;;;;5010038;28;20875;-76
2023/04/06 03:42:32;;;;;;;19.92;12.02;;;3.20;37.70;;;;;;4999932;28;20477;-76
2023/04/06 03:44:58;;;;;;;17.98;12.30;;;3.30;36.80;;;;;;4999475;28;20414;-76
2023/04/06 03:47:24;;;;;;;23.70;13.07;;;3.30;36.60;;;;;;5016071;28;20394;-76
2023/04/06 03:49:50;;;;;;;17.73;12.05;;;3.20;37.10;;;;;;5019912;28;20461;-76
2023/04/06 03:52:16;;;;;;;19.57;12.33;;;3.20;38.00;;;;;;5019765;28;20424;-76
2023/04/06 03:54:41;;;;;;;22.47;11.87;;;3.20;38.70;;;;;;5016886;28;20403;-76
2023/04/06 03:57:07;;;;;;;28.60;12.10;;;3.20;38.40;;;;;;5004655;28;20418;-76
2023/04/06 03:59:32;;;;;;;19.93;12.10;;;3.20;38.60;;;;;;4996509;28;20822;-76
2023/04/06 04:01:58;;;;;;;20.88;12.00;;;3.20;39.10;;;;;;4996498;28;20428;-76
2023/04/06 04:04:23;;;;;;;22.20;12.50;;;3.20;38.60;;;;;;5001298;28;20736;-76
2023/04/06 04:06:49;;;;;;;21.98;12.27;;;3.20;39.10;;;;;;4996810;28;20390;-76
2023/04/06 04:09:15;;;;;;;18.80;13.00;;;3.30;40.00;;;;;;4995590;28;20752;-76
2023/04/06 04:11:40;;;;;;;18.23;12.40;;;3.30;39.50;;;;;;4995416;28;20384;-75
2023/04/06 04:14:06;;;;;;;19.73;12.53;;;3.30;40.60;;;;;;4994790;28;20394;-74
2023/04/06 04:16:31;;;;;;;18.77;12.20;;;3.30;40.70;;;;;;4994649;28;20449;-76
2023/04/06 04:18:58;;;;;;;19.67;12.03;;;3.30;40.40;;;;;;4995094;28;20386;-75
2023/04/06 04:21:25;;;;;;;20.45;12.18;;;3.30;39.30;;;;;;4995641;28;20383;-76
2023/04/06 04:23:52;;;;;;;20.08;12.40;;;3.30;38.10;;;;;;4996038;28;20398;-76
2023/04/06 04:26:18;;;;;;;19.73;11.97;;;3.30;38.80;;;;;;4995615;28;20476;-75
2023/04/06 04:28:43;;;;;;;21.58;12.50;;;3.30;37.10;;;;;;4994861;28;20395;-75
2023/04/06 04:31:09;;;;;;;19.55;11.35;;;3.30;37.50;;;;;;4994489;28;20414;-76
2023/04/06 04:33:35;;;;;;;21.67;12.38;;;3.20;38.10;;;;;;4994585;28;20870;-76
2023/04/06 04:36:00;;;;;;;21.87;12.53;;;3.20;39.70;;;;;;4994413;28;20378;-75
2023/04/06 04:38:26;;;;;;;21.63;12.33;;;3.20;40.30;;;;;;4994679;28;20382;-75
2023/04/06 04:40:51;;;;;;;21.40;11.27;;;3.20;39.90;;;;;;4994356;28;20382;-75
2023/04/06 04:43:17;;;;;;;18.53;11.70;;;3.10;39.10;;;;;;4994071;28;20402;-74
2023/04/06 04:45:42;;;;;;;20.20;11.70;;;3.10;39.20;;;;;;4993612;28;20386;-77
2023/04/06 04:48:08;;;;;;;19.90;12.40;;;3.20;38.10;;;;;;4993776;28;20561;-74
2023/04/06 04:50:34;;;;;;;22.23;12.88;;;3.20;39.70;;;;;;4994331;28;20413;-75
2023/04/06 04:52:59;;;;;;;17.37;11.67;;;3.20;38.30;;;;;;4995314;28;20391;-74
2023/04/06 04:55:25;;;;;;;19.33;11.73;;;3.30;38.70;;;;;;4994436;28;20391;-74
2023/04/06 04:57:51;;;;;;;17.13;10.90;;;3.40;38.20;;;;;;4994067;28;20433;-74
2023/04/06 05:00:17;;;;;;;17.73;11.77;;;3.40;39.90;;;;;;4992762;28;20398;-74
2023/04/06 05:02:42;;;;;;;19.88;11.77;;;3.30;39.20;;;;;;4994066;28;20482;-74
2023/04/06 05:05:08;;;;;;;18.97;11.70;;;3.30;37.70;;;;;;4993958;28;20394;-75
2023/04/06 05:07:34;;;;;;;21.52;11.50;;;3.40;36.70;;;;;;4992773;28;20394;-75
2023/04/06 05:10:00;;;;;;;17.08;11.50;;;3.50;35.70;;;;;;4992655;28;20420;-75
2023/04/06 05:12:27;;;;;;;20.23;10.43;;;3.50;35.60;;;;;;4994080;28;20406;-75
2023/04/06 05:14:53;;;;;;;16.23;11.10;;;3.50;35.70;;;;;;4994063;28;20445;-76
2023/04/06 05:17:19;;;;;;;17.50;11.30;;;3.60;35.30;;;;;;4993968;28;20406;-74
2023/04/06 05:19:45;;;;;;;18.20;11.50;;;3.60;34.00;;;;;;4994107;28;20390;-74
2023/04/06 05:22:11;;;;;;;17.38;10.70;;;3.60;35.60;;;;;;4993395;28;20394;-75
2023/04/06 05:24:36;;;;;;;17.38;11.80;;;3.70;34.30;;;;;;4993689;28;20402;-76
2023/04/06 05:27:04;;;;;;;17.95;11.45;;;3.70;35.70;;;;;;4995062;28;22478;-76
2023/04/06 05:29:30;;;;;;;18.40;11.43;;;3.80;36.10;;;;;;4995543;28;20408;-76
2023/04/06 05:31:55;;;;;;;23.13;11.52;;;3.80;33.30;;;;;;4995153;28;20898;-75
2023/04/06 05:34:21;;;;;;;20.08;11.90;;;3.90;33.50;;;;;;4993240;28;20442;-75
2023/04/06 05:36:47;;;;;;;19.50;11.63;;;4.00;33.00;;;;;;4993950;28;20378;-76
2023/04/06 05:39:13;;;;;;;21.80;11.40;;;4.10;33.60;;;;;;4993826;28;20832;-76
2023/04/06 05:41:38;;;;;;;17.43;11.00;;;4.10;33.80;;;;;;4993851;28;20426;-76
2023/04/06 05:44:04;;;;;;;17.65;10.90;;;4.20;31.70;;;;;;4996810;28;20405;-76
2023/04/06 05:46:30;;;;;;;14.85;10.60;;;4.30;31.20;;;;;;5006667;28;20826;-75
2023/04/06 05:48:56;;;;;;;16.60;10.57;;;4.30;31.30;;;;;;5003221;28;20426;-75
2023/04/06 05:51:21;;;;;;;16.77;11.02;;;4.40;30.30;;;;;;5016924;28;20402;-76
2023/04/06 05:53:47;;;;;;;16.50;10.37;;;4.50;28.40;;;;;;5016154;28;20378;-75
2023/04/06 05:56:12;;;;;;;18.00;10.67;;;4.60;29.30;;;;;;5015971;28;20395;-75
2023/04/06 05:58:38;;;;;;;18.77;10.70;;;4.60;27.70;;;;;;5015914;28;20397;-76
2023/04/06 06:01:04;;;;;;;21.93;11.40;;;4.60;28.10;;;;;;5003127;28;20403;-76
2023/04/06 06:03:30;;;;;;;16.80;10.40;;;4.70;27.40;;;;;;4994416;28;20823;-75
2023/04/06 06:06:00;;;;;;;15.60;10.18;;;4.80;27.40;;;;;;4993450;28;20411;-75
2023/04/06 06:08:26;;;;;;;17.05;11.40;;;4.80;27.50;;;;;;4994155;28;20485;-75
2023/04/06 06:10:52;;;;;;;19.35;10.50;;;4.80;27.90;;;;;;4995040;28;20514;-76
2023/04/06 06:13:17;;;;;;;18.73;10.70;;;4.90;28.00;;;;;;4994557;28;20475;-75
2023/04/06 06:15:43;;;;;;;18.35;10.35;;;4.90;27.80;;;;;;4992180;28;20410;-75
2023/04/06 06:18:08;;;;;;;18.88;10.52;;;5.00;25.60;;;;;;4993535;28;20391;-76
2023/04/06 06:20:34;;;;;;;20.88;11.45;;;5.00;26.90;;;;;;4993403;28;20398;-76
2023/04/06 06:22:59;;;;;;;20.42;10.70;;;5.00;27.30;;;;;;4992752;28;20967;-76
2023/04/06 06:25:26;;;;;;;18.55;10.60;;;5.10;26.30;;;;;;4994010;28;20769;-75
2023/04/06 06:27:51;;;;;;;20.08;10.55;;;5.20;25.50;;;;;;4993997;28;20394;-75
2023/04/06 06:30:17;;;;;;;17.10;10.90;;;5.30;25.00;;;;;;4993054;28;20436;-76
2023/04/06 06:32:42;;;;;;;20.15;10.40;;;5.40;27.70;;;;;;4993622;28;20390;-75
2023/04/06 06:35:08;;;;;;;19.35;10.52;;;5.50;25.20;;;;;;4993591;28;20461;-76
2023/04/06 06:37:34;;;;;;;16.05;10.15;;;5.70;26.00;;;;;;4993543;28;20387;-76
2023/04/06 06:39:59;;;;;;;17.37;10.10;;;5.80;23.40;;;;;;4993528;28;20390;-76
2023/04/06 06:42:25;;;;;;;19.60;11.20;;;5.90;22.50;;;;;;4992677;28;20398;-75
2023/04/06 06:44:51;;;;;;;17.40;10.93;;;6.10;22.60;;;;;;4993090;28;20389;-76
2023/04/06 06:47:17;;;;;;;34.90;13.63;;;6.30;22.40;;;;;;4993158;28;20406;-76
2023/04/06 06:49:42;;;;;;;16.15;10.48;;;6.50;21.80;;;;;;4992366;28;20410;-75
2023/04/06 06:52:08;;;;;;;15.10;10.35;;;6.70;22.80;;;;;;4992725;28;20470;-74
2023/04/06 06:54:33;;;;;;;24.25;11.13;;;6.80;20.70;;;;;;4993492;28;20465;-75
2023/04/06 06:57:00;;;;;;;14.82;10.75;;;7.10;20.60;;;;;;4991823;28;20383;-75
2023/04/06 06:59:26;;;;;;;17.77;11.18;;;7.20;19.30;;;;;;4992526;28;20473;-76
2023/04/06 07:01:51;;;;;;;15.60;10.45;;;7.30;19.50;;;;;;4992087;28;20477;-75
2023/04/06 07:04:17;;;;;;;19.50;11.17;;;7.40;19.00;;;;;;4993735;28;20453;-76
2023/04/06 07:06:42;;;;;;;17.30;10.77;;;7.60;19.20;;;;;;4992831;28;20398;-76
2023/04/06 07:09:08;;;;;;;18.50;10.87;;;7.70;19.10;;;;;;4992430;28;20779;-76
2023/04/06 07:11:33;;;;;;;15.60;10.37;;;7.90;19.20;;;;;;4992090;28;20469;-76
2023/04/06 07:13:59;;;;;;;17.67;11.10;;;8.10;18.80;;;;;;4993427;28;20889;-75
2023/04/06 07:16:25;;;;;;;17.43;10.93;;;8.20;18.00;;;;;;4992189;28;20382;-76
2023/04/06 07:18:50;;;;;;;16.63;10.73;;;8.20;17.40;;;;;;4992357;28;20383;-76
2023/04/06 07:21:16;;;;;;;15.93;10.53;;;8.40;16.90;;;;;;4991615;28;20868;-75
2023/04/06 07:23:42;;;;;;;18.83;10.60;;;8.50;17.20;;;;;;4993828;28;20410;-75
2023/04/06 07:26:07;;;;;;;18.20;10.30;;;8.60;16.60;;;;;;4994338;28;20390;-76
2023/04/06 07:28:33;;;;;;;17.90;10.90;;;8.70;15.60;;;;;;4993139;28;20421;-76
2023/04/06 07:30:58;;;;;;;19.33;10.87;;;8.70;15.20;;;;;;4993465;28;20592;-77
2023/04/06 07:33:24;;;;;;;21.30;10.40;;;8.90;15.40;;;;;;4994212;28;20417;-76
2023/04/06 07:35:51;;;;;;;18.77;11.88;;;9.10;15.70;;;;;;4992137;28;20788;-76
2023/04/06 07:38:16;;;;;;;20.33;11.83;;;9.30;17.10;;;;;;4993796;28;20424;-75
2023/04/06 07:40:42;;;;;;;20.20;11.40;;;9.40;15.70;;;;;;4992695;28;20390;-77
2023/04/06 07:43:08;;;;;;;20.70;11.77;;;9.40;15.80;;;;;;4992510;28;20832;-76
2023/04/06 07:45:33;;;;;;;18.47;11.07;;;9.50;15.00;;;;;;4991638;28;20421;-76
2023/04/06 07:47:59;;;;;;;19.70;11.43;;;9.60;14.90;;;;;;4992898;28;20402;-75
2023/04/06 07:50:25;;;;;;;20.40;11.70;;;9.80;15.40;;;;;;5004245;28;20506;-76
2023/04/06 07:52:50;;;;;;;19.77;11.57;;;10.00;15.00;;;;;;5004459;28;20472;-74
2023/04/06 07:55:16;;;;;;;16.90;10.77;;;10.10;15.20;;;;;;5005257;28;20422;-75
2023/04/06 07:57:41;;;;;;;17.13;10.87;;;10.20;14.10;;;;;;4999989;28;20398;-75
2023/04/06 08:00:09;;;;;;;16.67;11.50;;;10.40;13.80;;;;;;4993863;28;20416;-77
2023/04/06 08:02:35;;;;;;;20.80;11.38;;;10.50;13.90;;;;;;4994661;28;20389;-76
2023/04/06 08:05:00;;;;;;;20.47;11.30;;;10.50;13.40;;;;;;4994243;28;20875;-76
2023/04/06 08:07:26;;;;;;;20.80;12.00;;;10.70;13.20;;;;;;4993359;28;20482;-76
2023/04/06 08:09:52;;;;;;;20.02;11.73;;;10.80;13.50;;;;;;4992675;28;20409;-76
2023/04/06 08:12:17;;;;;;;17.75;11.32;;;10.80;13.00;;;;;;4998896;28;20397;-76
2023/04/06 08:14:43;;;;;;;20.57;11.80;;;10.80;13.00;;;;;;5003601;28;20847;-76
2023/04/06 08:17:09;;;;;;;19.10;12.80;;;10.80;13.00;;;;;;5006162;28;20395;-76
2023/04/06 08:19:35;;;;;;;19.20;11.30;;;10.70;13.20;;;;;;5004686;28;20405;-75
2023/04/06 08:22:00;;;;;;;22.43;12.20;;;10.70;12.80;;;;;;4999072;28;20394;-75
2023/04/06 08:24:26;;;;;;;20.00;11.70;;;10.60;12.30;;;;;;4996057;28;20406;-76
2023/04/06 08:26:52;;;;;;;20.40;11.40;;;10.70;13.20;;;;;;4995480;28;20402;-75
2023/04/06 08:29:18;;;;;;;20.00;12.00;;;10.60;13.80;;;;;;4994774;28;20438;-75
2023/04/06 08:31:44;;;;;;;18.30;11.40;;;10.70;13.20;;;;;;4995288;28;20847;-75
2023/04/06 08:34:10;;;;;;;20.97;11.87;;;10.90;12.60;;;;;;4995771;28;20393;-76
2023/04/06 08:36:35;;;;;;;20.00;12.55;;;10.90;12.00;;;;;;4996453;28;20386;-76
2023/04/06 08:39:01;;;;;;;18.73;12.03;;;11.20;13.00;;;;;;4999654;28;20438;-76
2023/04/06 08:41:27;;;;;;;24.20;13.13;;;11.30;11.70;;;;;;4997726;28;20493;-77
2023/04/06 08:43:58;;;;;;;23.75;12.75;;;11.60;11.40;;;;;;5013185;28;20383;-74
2023/04/06 08:46:30;;;;;;;23.00;12.45;;;11.60;11.00;;;;;;5014403;28;20399;-76
2023/04/06 08:49:01;;;;;;;21.77;12.63;;;11.70;10.90;;;;;;5007712;28;20429;-76
2023/04/06 08:51:27;;;;;;;20.67;12.57;;;11.80;10.80;;;;;;5012830;28;20443;-75
2023/04/06 08:53:55;;;;;;;21.70;13.60;;;12.00;10.60;;;;;;5010873;28;20970;-76
2023/04/06 08:56:21;;;;;;;21.05;13.05;;;12.20;10.80;;;;;;4999982;28;20891;-76
2023/04/06 08:58:48;;;;;;;24.45;14.00;;;12.30;10.20;;;;;;4995363;28;20470;-76
2023/04/06 09:01:16;;;;;;;26.15;14.27;;;12.50;9.10;;;;;;4996136;28;20867;-76
2023/04/06 09:03:43;;;;;;;21.50;13.77;;;12.70;9.00;;;;;;4996413;28;20871;-76
2023/04/06 09:06:10;;;;;;;22.05;13.85;;;12.70;8.50;;;;;;4995843;28;20397;-77
2023/04/06 09:08:38;;;;;;;27.65;14.30;;;12.70;9.10;;;;;;4995354;28;20393;-76
2023/04/06 09:11:04;;;;;;;23.35;13.73;;;12.70;9.00;;;;;;4997005;28;20407;-76
2023/04/06 09:13:30;;;;;;;24.02;15.20;;;12.80;9.00;;;;;;4997110;28;20387;-76
2023/04/06 09:16:04;;;;;;;24.05;14.85;;;13.00;8.60;;;;;;4998446;28;20399;-76
2023/04/06 09:18:33;;;;;;;24.95;15.10;;;13.30;9.30;;;;;;4999271;28;20413;-77
2023/04/06 09:21:00;;;;;;;30.00;15.43;;;13.50;7.90;;;;;;4998167;28;20376;-75
2023/04/06 09:23:26;;;;;;;26.35;16.00;;;13.60;7.40;;;;;;4998162;28;20529;-76
2023/04/06 09:25:51;;;;;;;32.97;17.08;;;13.80;8.10;;;;;;5023607;23;20471;-72
2023/04/06 09:28:17;;;;;;;27.77;17.05;;;13.90;6.40;;;;;;5013175;28;20373;-72
2023/04/06 09:30:49;;;;;;;33.15;17.25;;;14.00;6.60;;;;;;5013433;28;20743;-73
2023/04/06 09:33:23;;;;;;;30.42;17.63;;;14.10;6.30;;;;;;5012087;28;20492;-70
2023/04/06 09:35:51;;;;;;;29.17;17.42;;;14.20;6.60;;;;;;5012582;28;20392;-73
2023/04/06 09:38:17;;;;;;;32.60;17.17;;;14.30;6.70;;;;;;5012648;28;20418;-71
2023/04/06 09:40:51;;;;;;;32.87;16.67;;;14.30;6.20;;;;;;5012635;28;20806;-70
2023/04/06 09:43:27;;;;;;;33.70;17.30;;;14.40;6.00;;;;;;5012659;28;20376;-72
2023/04/06 09:45:53;;;;;;;32.35;17.70;;;14.50;6.20;;;;;;5012948;28;20389;-71
2023/04/06 09:48:21;;;;;;;29.75;17.77;;;14.60;5.60;;;;;;5012739;28;20389;-71
2023/04/06 09:50:50;;;;;;;28.95;16.63;;;14.60;5.50;;;;;;5012309;28;20405;-72
2023/04/06 09:53:19;;;;;;;29.98;17.58;;;14.90;6.30;;;;;;5012526;28;20388;-71
2023/04/06 09:55:46;;;;;;;32.67;17.00;;;15.10;5.60;;;;;;5012054;28;20443;-71
2023/04/06 09:58:25;;;;;;;32.63;15.77;;;15.20;4.90;;;;;;5012296;28;20415;-71
2023/04/06 10:00:54;;;;;;;31.77;17.13;;;15.10;5.10;;;;;;4994439;28;20432;-72
2023/04/06 10:03:47;;;;;;;31.45;17.35;;;15.30;4.90;;;;;;5012015;28;20895;-74
2023/04/06 10:06:18;;;;;;;29.90;16.67;;;15.60;4.70;;;;;;4994343;28;20484;-72
2023/04/06 10:08:47;;;;;;;32.55;17.30;;;15.50;5.10;;;;;;5012003;28;20824;-72
2023/04/06 10:11:13;;;;;;;32.33;17.00;;;15.50;5.10;;;;;;5012337;28;20487;-72
2023/04/06 10:13:39;;;;;;;32.90;18.10;;;15.50;4.90;;;;;;5012253;28;20464;-72
2023/04/06 10:16:05;;;;;;;31.10;18.17;;;15.50;4.60;;;;;;5012982;28;20396;-73
2023/04/06 10:18:31;;;;;;;33.13;17.90;;;15.50;4.50;;;;;;5012656;28;20396;-74
2023/04/06 10:21:08;;;;;;;31.77;17.03;;;15.50;4.70;;;;;;5011839;28;20870;-73
2023/04/06 10:23:34;;;;;;;30.83;17.80;;;15.60;4.60;;;;;;5012228;28;20381;-73
2023/04/06 10:26:01;;;;;;;33.22;17.75;;;15.60;4.50;;;;;;5012397;28;20404;-72
2023/04/06 10:28:31;;;;;;;32.08;18.23;;;16.00;4.70;;;;;;4994979;28;20819;-72
2023/04/06 10:30:59;;;;;;;34.55;19.35;;;16.00;3.90;;;;;;5011929;28;20412;-71
2023/04/06 10:33:25;;;;;;;34.33;18.60;;;16.00;4.80;;;;;;4994735;28;20389;-72
2023/04/06 10:35:51;;;;;;;34.08;18.90;;;15.80;3.90;;;;;;5011703;28;20866;-71
2023/04/06 10:38:20;;;;;;;35.20;18.47;;;15.80;5.20;;;;;;5011803;28;20478;-71
2023/04/06 10:40:49;;;;;;;31.08;18.20;;;15.90;4.60;;;;;;5011806;28;20401;-70
2023/04/06 10:43:22;;;;;;;33.78;18.83;;;16.10;4.60;;;;;;4993869;28;20385;-72
2023/04/06 10:45:59;;;;;;;34.63;19.10;;;16.00;4.70;;;;;;5011229;28;20389;-72
2023/04/06 10:48:25;;;;;;;38.28;21.00;;;16.10;4.80;;;;;;5011751;28;20392;-72
2023/04/06 10:50:52;;;;;;;33.83;19.45;;;16.00;4.80;;;;;;5011781;28;20415;-72
2023/04/06 10:53:25;;;;;;;30.52;18.90;;;16.10;5.00;;;;;;5011826;28;20778;-72
2023/04/06 10:55:53;;;;;;;31.08;18.80;;;16.20;5.30;;;;;;5011488;28;20423;-71
2023/04/06 10:58:19;;;;;;;30.30;18.27;;;16.50;5.30;;;;;;5011617;28;20467;-70
2023/04/06 11:00:48;;;;;;;30.25;18.92;;;16.60;4.70;;;;;;5011400;28;20424;-70
2023/04/06 11:03:15;;;;;;;38.30;20.20;;;16.50;5.10;;;;;;5012037;28;20384;-71
2023/04/06 11:05:45;;;;;;;32.38;18.60;;;16.40;5.00;;;;;;5011930;28;20801;-72
2023/04/06 11:08:21;;;;;;;35.25;19.63;;;16.40;5.20;;;;;;5013419;28;20435;-72
2023/04/06 11:10:47;;;;;;;31.07;18.80;;;16.50;5.10;;;;;;5014400;28;20570;-71
2023/04/06 11:13:12;;;;;;;32.53;18.67;;;16.70;5.00;;;;;;5013436;28;20413;-72
2023/04/06 11:15:38;;;;;;;37.50;18.67;;;17.00;4.60;;;;;;5013800;28;20385;-71
2023/04/06 11:18:04;;;;;;;32.70;18.07;;;16.90;4.50;;;;;;5012829;28;20769;-72
2023/04/06 11:20:30;;;;;;;30.48;18.27;;;17.10;4.80;;;;;;4994503;28;20901;-72
2023/04/06 11:22:56;;;;;;;31.60;19.30;;;17.50;4.30;;;;;;5011473;28;20400;-72
2023/04/06 11:25:21;;;;;;;36.80;18.63;;;17.20;4.20;;;;;;5012126;28;20921;-72
2023/04/06 11:27:47;;;;;;;34.07;19.10;;;16.90;5.00;;;;;;5012244;28;20904;-72
2023/04/06 11:30:14;;;;;;;33.53;18.98;;;16.70;5.80;;;;;;5012978;28;20397;-72
2023/04/06 11:32:44;;;;;;;36.83;18.30;;;16.60;6.40;;;;;;5013350;28;20396;-71
2023/04/06 11:35:23;;;;;;;35.03;19.60;;;16.50;6.30;;;;;;5013564;28;20388;-73
2023/04/06 11:37:51;;;;;;;34.67;19.20;;;16.40;6.50;;;;;;5004189;28;20453;-72
2023/04/06 11:40:22;;;;;;;32.20;18.30;;;16.20;6.30;;;;;;4976923;28;20395;-71
2023/04/06 11:42:55;;;;;;;32.53;18.77;;;16.10;6.50;;;;;;5011678;28;20388;-71
2023/04/06 11:45:21;;;;;;;36.83;19.33;;;16.10;7.60;;;;;;4994065;28;20754;-71
2023/04/06 11:47:56;;;;;;;34.42;18.80;;;15.90;7.50;;;;;;5012010;28;20388;-72
2023/04/06 11:50:21;;;;;;;31.47;19.00;;;16.00;7.90;;;;;;4996271;28;20415;-70
2023/04/06 11:52:58;;;;;;;34.87;19.07;;;16.20;7.10;;;;;;5014731;28;20874;-72
2023/04/06 11:55:24;;;;;;;31.40;18.52;;;16.40;7.30;;;;;;4996072;28;20397;-71
2023/04/06 11:57:51;;;;;;;30.63;18.67;;;16.50;7.00;;;;;;5015735;28;20387;-71
2023/04/06 12:00:17;;;;;;;36.78;19.35;;;16.60;7.00;;;;;;5014907;28;20400;-70
2023/04/06 12:02:46;;;;;;;34.55;18.63;;;16.60;7.20;;;;;;5014464;28;20500;-72
2023/04/06 12:05:12;;;;;;;30.70;18.35;;;16.90;6.90;;;;;;5014323;28;20389;-75
2023/04/06 12:07:37;;;;;;;35.92;18.05;;;17.00;6.80;;;;;;5014252;28;20396;-71
2023/04/06 12:10:04;;;;;;;34.80;17.90;;;17.00;6.30;;;;;;5013769;28;20405;-71
2023/04/06 12:12:30;;;;;;;30.80;17.67;;;16.90;6.60;;;;;;4995890;28;20415;-70
2023/04/06 12:14:56;;;;;;;32.47;17.98;;;16.60;7.20;;;;;;5014024;28;20377;-71
2023/04/06 12:17:21;;;;;;;28.65;18.20;;;16.40;7.80;;;;;;5014066;28;20855;-72
2023/04/06 12:19:47;;;;;;;30.87;17.80;;;16.30;8.00;;;;;;5014261;28;20486;-71
2023/04/06 12:22:14;;;;;;;34.08;17.38;;;16.40;8.40;;;;;;5014035;28;20761;-71
2023/04/06 12:24:39;;;;;;;31.52;17.27;;;16.60;8.30;;;;;;5013982;28;20389;-71
2023/04/06 12:27:05;;;;;;;31.70;16.77;;;16.70;7.80;;;;;;5014220;28;20400;-72
2023/04/06 12:29:30;;;;;;;32.67;17.60;;;16.60;7.00;;;;;;4996290;28;20424;-70
2023/04/06 12:31:56;;;;;;;34.37;18.37;;;16.50;8.20;;;;;;4996302;28;20385;-72